sensor_id;sensor_type;location;lat;lon;timestamp;pressure;altitude;pressure_sealevel;temperature;humidity
18749;BME280;9503;53.560;10.246;2024-03-06T00:02:24;101395.72;;;11.13;68.44
18749;BME280;9503;53.560;10.246;2024-03-06T00:04:50;101400.50;;;11.06;67.95
18749;BME280;9503;53.560;10.246;2024-03-06T00:07:17;101400.16;;;10.86;67.82
18749;BME280;9503;53.560;10.246;2024-03-06T00:09:43;101401.22;;;11.04;68.45
18749;BME280;9503;53.560;10.246;2024-03-06T00:12:10;101398.19;;;11.26;67.59
18749;BME280;9503;53.560;10.246;2024-03-06T00:14:37;101395.38;;;10.62;68.81
18749;BME280;9503;53.560;10.246;2024-03-06T00:17:03;101404.38;;;11.29;67.95
18749;BME280;9503;53.560;10.246;2024-03-06T00:19:33;101407.59;;;11.11;68.68
18749;BME280;9503;53.560;10.246;2024-03-06T00:22:00;101406.06;;;11.60;66.66
18749;BME280;9503;53.560;10.246;2024-03-06T00:24:27;101406.31;;;11.33;67.32
18749;BME280;9503;53.560;10.246;2024-03-06T00:26:54;101415.66;;;11.17;68.02
18749;BME280;9503;53.560;10.246;2024-03-06T00:29:20;101417.94;;;10.83;68.27
18749;BME280;9503;53.560;10.246;2024-03-06T00:31:47;101417.94;;;10.97;68.17
18749;BME280;9503;53.560;10.246;2024-03-06T00:34:14;101413.69;;;10.83;68.02
18749;BME280;9503;53.560;10.246;2024-03-06T00:36:43;101418.22;;;11.02;68.12
18749;BME280;9503;53.560;10.246;2024-03-06T00:39:09;101414.84;;;11.03;68.36
18749;BME280;9503;53.560;10.246;2024-03-06T00:41:36;101420.91;;;11.34;67.64
18749;BME280;9503;53.560;10.246;2024-03-06T00:44:03;101425.28;;;11.06;67.89
18749;BME280;9503;53.560;10.246;2024-03-06T00:46:31;101422.44;;;11.16;67.45
18749;BME280;9503;53.560;10.246;2024-03-06T00:48:57;101421.31;;;11.11;68.05
18749;BME280;9503;53.560;10.246;2024-03-06T00:51:24;101428.13;;;10.96;68.11
18749;BME280;9503;53.560;10.246;2024-03-06T00:53:52;101429.59;;;11.37;67.16
18749;BME280;9503;53.560;10.246;2024-03-06T00:56:18;101429.41;;;11.33;67.15
18749;BME280;9503;53.560;10.246;2024-03-06T00:58:45;101435.19;;;11.15;67.47
18749;BME280;9503;53.560;10.246;2024-03-06T01:01:12;101435.47;;;11.19;67.78
18749;BME280;9503;53.560;10.246;2024-03-06T01:03:39;101437.50;;;10.95;67.90
18749;BME280;9503;53.560;10.246;2024-03-06T01:06:05;101440.53;;;11.03;68.61
18749;BME280;9503;53.560;10.246;2024-03-06T01:08:32;101441.09;;;11.43;67.10
18749;BME280;9503;53.560;10.246;2024-03-06T01:11:00;101450.97;;;11.52;66.38
18749;BME280;9503;53.560;10.246;2024-03-06T01:13:27;101450.28;;;11.54;66.51
18749;BME280;9503;53.560;10.246;2024-03-06T01:15:53;101451.81;;;11.36;67.08
18749;BME280;9503;53.560;10.246;2024-03-06T01:18:20;101449.88;;;10.73;68.56
18749;BME280;9503;53.560;10.246;2024-03-06T01:20:47;101449.78;;;11.16;68.20
18749;BME280;9503;53.560;10.246;2024-03-06T01:23:13;101454.84;;;10.99;68.42
18749;BME280;9503;53.560;10.246;2024-03-06T01:25:40;101457.22;;;10.96;68.23
18749;BME280;9503;53.560;10.246;2024-03-06T01:28:08;101459.28;;;11.17;68.06
18749;BME280;9503;53.560;10.246;2024-03-06T01:30:34;101458.03;;;11.25;67.79
18749;BME280;9503;53.560;10.246;2024-03-06T01:33:01;101455.31;;;11.53;66.81
18749;BME280;9503;53.560;10.246;2024-03-06T01:35:28;101459.66;;;11.69;66.30
18749;BME280;9503;53.560;10.246;2024-03-06T01:37:54;101458.00;;;11.54;65.80
18749;BME280;9503;53.560;10.246;2024-03-06T01:40:21;101468.34;;;11.56;66.33
18749;BME280;9503;53.560;10.246;2024-03-06T01:42:48;101461.53;;;11.56;65.87
18749;BME280;9503;53.560;10.246;2024-03-06T01:45:16;101458.34;;;10.87;67.50
18749;BME280;9503;53.560;10.246;2024-03-06T01:47:42;101459.56;;;10.64;68.42
18749;BME280;9503;53.560;10.246;2024-03-06T01:50:09;101470.66;;;11.07;68.30
18749;BME280;9503;53.560;10.246;2024-03-06T01:52:38;101466.69;;;11.27;68.08
18749;BME280;9503;53.560;10.246;2024-03-06T01:55:07;101470.06;;;10.96;68.48
18749;BME280;9503;53.560;10.246;2024-03-06T01:57:34;101473.59;;;10.98;68.63
18749;BME280;9503;53.560;10.246;2024-03-06T02:00:01;101479.81;;;11.31;67.37
18749;BME280;9503;53.560;10.246;2024-03-06T02:02:30;101473.03;;;11.48;66.43
18749;BME280;9503;53.560;10.246;2024-03-06T02:04:56;101471.72;;;11.40;66.24
18749;BME280;9503;53.560;10.246;2024-03-06T02:07:25;101477.31;;;11.48;66.82
18749;BME280;9503;53.560;10.246;2024-03-06T02:09:52;101483.56;;;11.53;65.96
18749;BME280;9503;53.560;10.246;2024-03-06T02:12:18;101477.47;;;11.51;65.70
18749;BME280;9503;53.560;10.246;2024-03-06T02:14:45;101475.72;;;11.20;66.85
18749;BME280;9503;53.560;10.246;2024-03-06T02:17:11;101485.72;;;11.30;66.83
18749;BME280;9503;53.560;10.246;2024-03-06T02:19:40;101473.00;;;11.17;66.66
18749;BME280;9503;53.560;10.246;2024-03-06T02:22:08;101477.94;;;11.14;66.50
18749;BME280;9503;53.560;10.246;2024-03-06T02:24:36;101478.13;;;11.17;66.51
18749;BME280;9503;53.560;10.246;2024-03-06T02:27:03;101487.22;;;11.42;66.60
18749;BME280;9503;53.560;10.246;2024-03-06T02:29:31;101492.44;;;11.43;66.40
18749;BME280;9503;53.560;10.246;2024-03-06T02:31:57;101485.06;;;11.64;65.53
18749;BME280;9503;53.560;10.246;2024-03-06T02:34:24;101488.81;;;11.54;66.06
18749;BME280;9503;53.560;10.246;2024-03-06T02:36:51;101497.63;;;11.59;65.77
18749;BME280;9503;53.560;10.246;2024-03-06T02:39:19;101482.69;;;11.23;66.43
18749;BME280;9503;53.560;10.246;2024-03-06T02:41:46;101490.94;;;10.88;67.35
18749;BME280;9503;53.560;10.246;2024-03-06T02:44:14;101492.53;;;11.30;66.78
18749;BME280;9503;53.560;10.246;2024-03-06T02:46:41;101492.97;;;11.23;66.71
18749;BME280;9503;53.560;10.246;2024-03-06T02:49:07;101496.69;;;11.13;67.58
18749;BME280;9503;53.560;10.246;2024-03-06T02:51:34;101493.84;;;10.94;67.07
18749;BME280;9503;53.560;10.246;2024-03-06T02:54:01;101494.13;;;11.13;66.66
18749;BME280;9503;53.560;10.246;2024-03-06T02:56:29;101490.97;;;11.02;67.32
18749;BME280;9503;53.560;10.246;2024-03-06T02:58:55;101491.72;;;11.16;67.36
18749;BME280;9503;53.560;10.246;2024-03-06T03:01:22;101498.28;;;10.96;66.19
18749;BME280;9503;53.560;10.246;2024-03-06T03:03:49;101499.19;;;11.26;66.72
18749;BME280;9503;53.560;10.246;2024-03-06T03:06:16;101494.19;;;10.85;66.57
18749;BME280;9503;53.560;10.246;2024-03-06T03:08:43;101494.47;;;10.47;67.54
18749;BME280;9503;53.560;10.246;2024-03-06T03:11:09;101492.63;;;10.44;68.71
18749;BME280;9503;53.560;10.246;2024-03-06T03:13:39;101491.97;;;10.76;66.84
18749;BME280;9503;53.560;10.246;2024-03-06T03:16:06;101492.53;;;10.43;67.54
18749;BME280;9503;53.560;10.246;2024-03-06T03:18:32;101496.47;;;10.66;67.95
18749;BME280;9503;53.560;10.246;2024-03-06T03:20:59;101498.53;;;10.86;67.05
18749;BME280;9503;53.560;10.246;2024-03-06T03:23:26;101496.94;;;10.73;67.26
18749;BME280;9503;53.560;10.246;2024-03-06T03:25:53;101494.91;;;10.83;67.33
18749;BME280;9503;53.560;10.246;2024-03-06T03:28:20;101494.75;;;10.23;68.36
18749;BME280;9503;53.560;10.246;2024-03-06T03:30:48;101499.63;;;10.20;68.42
18749;BME280;9503;53.560;10.246;2024-03-06T03:33:15;101498.75;;;10.33;68.12
18749;BME280;9503;53.560;10.246;2024-03-06T03:35:42;101494.03;;;10.13;68.72
18749;BME280;9503;53.560;10.246;2024-03-06T03:38:08;101494.16;;;10.01;67.54
18749;BME280;9503;53.560;10.246;2024-03-06T03:40:35;101495.38;;;9.93;68.58
18749;BME280;9503;53.560;10.246;2024-03-06T03:43:01;101501.97;;;9.89;68.99
18749;BME280;9503;53.560;10.246;2024-03-06T03:45:32;101508.91;;;10.18;67.48
18749;BME280;9503;53.560;10.246;2024-03-06T03:48:01;101506.53;;;10.35;67.41
18749;BME280;9503;53.560;10.246;2024-03-06T03:50:28;101504.59;;;10.04;67.36
18749;BME280;9503;53.560;10.246;2024-03-06T03:52:54;101514.50;;;9.72;68.19
18749;BME280;9503;53.560;10.246;2024-03-06T03:55:23;101520.00;;;9.78;68.53
18749;BME280;9503;53.560;10.246;2024-03-06T03:57:50;101518.63;;;9.43;69.04
18749;BME280;9503;53.560;10.246;2024-03-06T04:00:17;101519.78;;;9.61;68.51
18749;BME280;9503;53.560;10.246;2024-03-06T04:02:44;101524.03;;;9.48;68.54
18749;BME280;9503;53.560;10.246;2024-03-06T04:05:12;101519.69;;;9.47;69.50
18749;BME280;9503;53.560;10.246;2024-03-06T04:07:39;101521.69;;;9.64;67.88
18749;BME280;9503;53.560;10.246;2024-03-06T04:10:07;101526.59;;;9.61;68.15
18749;BME280;9503;53.560;10.246;2024-03-06T04:12:39;101518.72;;;9.58;67.86
18749;BME280;9503;53.560;10.246;2024-03-06T04:15:06;101519.59;;;9.58;68.05
18749;BME280;9503;53.560;10.246;2024-03-06T04:17:34;101520.44;;;9.19;68.78
18749;BME280;9503;53.560;10.246;2024-03-06T04:20:00;101524.06;;;9.09;69.59
18749;BME280;9503;53.560;10.246;2024-03-06T04:22:30;101534.13;;;9.20;68.69
18749;BME280;9503;53.560;10.246;2024-03-06T04:24:57;101523.50;;;9.40;68.27
18749;BME280;9503;53.560;10.246;2024-03-06T04:27:24;101527.56;;;9.36;68.31
18749;BME280;9503;53.560;10.246;2024-03-06T04:29:50;101528.13;;;9.32;67.28
18749;BME280;9503;53.560;10.246;2024-03-06T04:32:17;101529.44;;;9.26;68.39
18749;BME280;9503;53.560;10.246;2024-03-06T04:34:44;101530.69;;;9.19;67.50
18749;BME280;9503;53.560;10.246;2024-03-06T04:37:11;101533.63;;;9.25;67.21
18749;BME280;9503;53.560;10.246;2024-03-06T04:39:39;101529.97;;;9.08;66.67
18749;BME280;9503;53.560;10.246;2024-03-06T04:42:06;101532.50;;;9.08;67.85
18749;BME280;9503;53.560;10.246;2024-03-06T04:44:33;101534.94;;;8.94;66.96
18749;BME280;9503;53.560;10.246;2024-03-06T04:47:00;101531.94;;;8.88;67.00
18749;BME280;9503;53.560;10.246;2024-03-06T04:49:26;101538.91;;;8.77;67.34
18749;BME280;9503;53.560;10.246;2024-03-06T04:51:53;101535.00;;;8.82;67.72
18749;BME280;9503;53.560;10.246;2024-03-06T04:54:19;101546.06;;;8.69;67.29
18749;BME280;9503;53.560;10.246;2024-03-06T04:56:48;101546.97;;;8.58;68.33
18749;BME280;9503;53.560;10.246;2024-03-06T04:59:14;101542.09;;;8.61;68.05
18749;BME280;9503;53.560;10.246;2024-03-06T05:01:41;101550.31;;;8.57;68.38
18749;BME280;9503;53.560;10.246;2024-03-06T05:04:09;101544.28;;;8.68;67.96
18749;BME280;9503;53.560;10.246;2024-03-06T05:06:35;101560.63;;;8.58;67.56
18749;BME280;9503;53.560;10.246;2024-03-06T05:09:02;101559.22;;;8.50;67.70
18749;BME280;9503;53.560;10.246;2024-03-06T05:11:29;101560.59;;;8.45;68.21
18749;BME280;9503;53.560;10.246;2024-03-06T05:13:59;101565.81;;;8.35;68.01
18749;BME280;9503;53.560;10.246;2024-03-06T05:16:25;101565.81;;;8.35;68.35
18749;BME280;9503;53.560;10.246;2024-03-06T05:18:52;101569.69;;;8.30;67.39
18749;BME280;9503;53.560;10.246;2024-03-06T05:21:19;101579.47;;;8.24;67.92
18749;BME280;9503;53.560;10.246;2024-03-06T05:23:47;101575.41;;;8.02;68.68
18749;BME280;9503;53.560;10.246;2024-03-06T05:26:14;101582.38;;;8.17;68.13
18749;BME280;9503;53.560;10.246;2024-03-06T05:28:40;101574.81;;;8.18;67.88
18749;BME280;9503;53.560;10.246;2024-03-06T05:31:15;101579.28;;;8.09;68.41
18749;BME280;9503;53.560;10.246;2024-03-06T05:33:43;101584.59;;;8.12;67.62
18749;BME280;9503;53.560;10.246;2024-03-06T05:36:10;101584.16;;;8.06;68.20
18749;BME280;9503;53.560;10.246;2024-03-06T05:38:37;101591.81;;;8.06;67.65
18749;BME280;9503;53.560;10.246;2024-03-06T05:41:03;101590.63;;;8.01;67.83
18749;BME280;9503;53.560;10.246;2024-03-06T05:43:30;101597.59;;;7.92;67.36
18749;BME280;9503;53.560;10.246;2024-03-06T05:45:56;101603.03;;;7.85;67.49
18749;BME280;9503;53.560;10.246;2024-03-06T05:48:24;101605.91;;;7.78;67.92
18749;BME280;9503;53.560;10.246;2024-03-06T05:50:52;101612.56;;;7.75;67.96
18749;BME280;9503;53.560;10.246;2024-03-06T05:53:18;101616.91;;;8.00;67.31
18749;BME280;9503;53.560;10.246;2024-03-06T05:55:45;101618.13;;;8.17;66.85
18749;BME280;9503;53.560;10.246;2024-03-06T05:58:12;101620.78;;;8.18;66.31
18749;BME280;9503;53.560;10.246;2024-03-06T06:00:39;101625.81;;;8.17;66.49
18749;BME280;9503;53.560;10.246;2024-03-06T06:03:05;101634.34;;;8.17;66.82
18749;BME280;9503;53.560;10.246;2024-03-06T06:05:34;101636.56;;;8.13;66.82
18749;BME280;9503;53.560;10.246;2024-03-06T06:08:02;101636.56;;;8.13;66.55
18749;BME280;9503;53.560;10.246;2024-03-06T06:10:28;101647.22;;;8.07;67.35
18749;BME280;9503;53.560;10.246;2024-03-06T06:12:55;101646.44;;;8.20;66.98
18749;BME280;9503;53.560;10.246;2024-03-06T06:15:22;101651.91;;;8.24;66.52
18749;BME280;9503;53.560;10.246;2024-03-06T06:17:51;101653.66;;;8.14;66.72
18749;BME280;9503;53.560;10.246;2024-03-06T06:20:18;101663.22;;;8.28;67.56
18749;BME280;9503;53.560;10.246;2024-03-06T06:22:46;101659.13;;;8.30;66.87
18749;BME280;9503;53.560;10.246;2024-03-06T06:25:13;101662.91;;;8.35;67.32
18749;BME280;9503;53.560;10.246;2024-03-06T06:27:41;101671.75;;;8.28;66.35
18749;BME280;9503;53.560;10.246;2024-03-06T06:30:08;101675.34;;;8.30;66.58
18749;BME280;9503;53.560;10.246;2024-03-06T06:32:36;101676.56;;;8.36;66.65
18749;BME280;9503;53.560;10.246;2024-03-06T06:35:03;101672.34;;;8.36;67.21
18749;BME280;9503;53.560;10.246;2024-03-06T06:37:30;101687.47;;;8.45;67.43
18749;BME280;9503;53.560;10.246;2024-03-06T06:39:58;101694.66;;;8.50;67.53
18749;BME280;9503;53.560;10.246;2024-03-06T06:42:28;101689.84;;;8.78;67.41
18749;BME280;9503;53.560;10.246;2024-03-06T06:44:54;101693.84;;;9.23;68.38
18749;BME280;9503;53.560;10.246;2024-03-06T06:47:21;101699.03;;;9.75;69.64
18749;BME280;9503;53.560;10.246;2024-03-06T06:49:48;101699.38;;;10.44;69.26
18749;BME280;9503;53.560;10.246;2024-03-06T06:52:14;101703.59;;;11.11;67.12
18749;BME280;9503;53.560;10.246;2024-03-06T06:54:41;101705.00;;;11.77;67.13
18749;BME280;9503;53.560;10.246;2024-03-06T06:57:09;101717.78;;;12.80;65.49
18749;BME280;9503;53.560;10.246;2024-03-06T06:59:35;101711.09;;;13.15;63.33
18749;BME280;9503;53.560;10.246;2024-03-06T07:02:02;101712.97;;;13.66;61.05
18749;BME280;9503;53.560;10.246;2024-03-06T07:04:29;101723.75;;;14.09;58.96
18749;BME280;9503;53.560;10.246;2024-03-06T07:06:56;101725.25;;;14.22;58.29
18749;BME280;9503;53.560;10.246;2024-03-06T07:09:22;101724.91;;;14.32;58.23
18749;BME280;9503;53.560;10.246;2024-03-06T07:11:50;101730.63;;;14.45;56.96
18749;BME280;9503;53.560;10.246;2024-03-06T07:14:18;101732.19;;;13.89;55.82
18749;BME280;9503;53.560;10.246;2024-03-06T07:16:45;101731.38;;;13.09;57.31
18749;BME280;9503;53.560;10.246;2024-03-06T07:19:12;101737.56;;;12.35;58.74
18749;BME280;9503;53.560;10.246;2024-03-06T07:21:39;101739.53;;;12.25;59.25
18749;BME280;9503;53.560;10.246;2024-03-06T07:24:06;101741.94;;;12.07;59.61
18749;BME280;9503;53.560;10.246;2024-03-06T07:26:33;101739.72;;;11.98;61.05
18749;BME280;9503;53.560;10.246;2024-03-06T07:29:00;101738.25;;;11.88;60.93
18749;BME280;9503;53.560;10.246;2024-03-06T07:31:29;101748.09;;;11.96;61.33
18749;BME280;9503;53.560;10.246;2024-03-06T07:33:55;101750.31;;;12.63;60.73
18749;BME280;9503;53.560;10.246;2024-03-06T07:36:22;101754.66;;;12.95;59.13
18749;BME280;9503;53.560;10.246;2024-03-06T07:38:49;101758.53;;;13.51;58.38
18749;BME280;9503;53.560;10.246;2024-03-06T07:41:15;101760.19;;;13.18;57.35
18749;BME280;9503;53.560;10.246;2024-03-06T07:43:42;101764.56;;;13.04;58.19
18749;BME280;9503;53.560;10.246;2024-03-06T07:46:09;101760.00;;;12.53;59.07
18749;BME280;9503;53.560;10.246;2024-03-06T07:48:41;101765.50;;;12.90;58.18
18749;BME280;9503;53.560;10.246;2024-03-06T07:51:09;101769.94;;;12.92;57.66
18749;BME280;9503;53.560;10.246;2024-03-06T07:53:36;101767.63;;;12.97;57.82
18749;BME280;9503;53.560;10.246;2024-03-06T07:56:03;101768.81;;;12.87;58.45
18749;BME280;9503;53.560;10.246;2024-03-06T07:58:29;101765.25;;;13.16;57.67
18749;BME280;9503;53.560;10.246;2024-03-06T08:00:56;101771.53;;;12.90;58.23
18749;BME280;9503;53.560;10.246;2024-03-06T08:03:24;101771.25;;;13.64;56.93
18749;BME280;9503;53.560;10.246;2024-03-06T08:05:52;101781.06;;;13.22;57.20
18749;BME280;9503;53.560;10.246;2024-03-06T08:08:19;101782.06;;;13.57;57.07
18749;BME280;9503;53.560;10.246;2024-03-06T08:10:46;101784.06;;;13.30;57.31
18749;BME280;9503;53.560;10.246;2024-03-06T08:13:13;101783.94;;;13.60;56.88
18749;BME280;9503;53.560;10.246;2024-03-06T08:15:40;101770.34;;;12.54;58.40
18749;BME280;9503;53.560;10.246;2024-03-06T08:18:09;101787.13;;;13.23;57.73
18749;BME280;9503;53.560;10.246;2024-03-06T08:20:36;101790.72;;;12.95;57.62
18749;BME280;9503;53.560;10.246;2024-03-06T08:23:04;101786.50;;;12.52;59.02
18749;BME280;9503;53.560;10.246;2024-03-06T08:25:31;101794.53;;;13.33;57.60
18749;BME280;9503;53.560;10.246;2024-03-06T08:27:58;101794.31;;;13.61;56.85
18749;BME280;9503;53.560;10.246;2024-03-06T08:30:25;101795.00;;;13.11;57.66
18749;BME280;9503;53.560;10.246;2024-03-06T08:32:52;101799.00;;;13.68;56.58
18749;BME280;9503;53.560;10.246;2024-03-06T08:35:18;101797.31;;;13.07;56.79
18749;BME280;9503;53.560;10.246;2024-03-06T08:37:46;101804.59;;;12.53;57.67
18749;BME280;9503;53.560;10.246;2024-03-06T08:40:15;101800.47;;;13.01;58.08
18749;BME280;9503;53.560;10.246;2024-03-06T08:42:43;101812.66;;;12.74;58.22
18749;BME280;9503;53.560;10.246;2024-03-06T08:45:09;101808.81;;;12.97;57.83
18749;BME280;9503;53.560;10.246;2024-03-06T08:47:36;101815.94;;;13.32;56.47
18749;BME280;9503;53.560;10.246;2024-03-06T08:50:04;101817.03;;;13.68;56.35
18749;BME280;9503;53.560;10.246;2024-03-06T08:52:31;101809.22;;;13.05;56.58
18749;BME280;9503;53.560;10.246;2024-03-06T08:54:58;101815.25;;;12.59;56.44
18749;BME280;9503;53.560;10.246;2024-03-06T08:57:26;101810.63;;;12.24;57.85
18749;BME280;9503;53.560;10.246;2024-03-06T08:59:53;101820.66;;;12.05;58.31
18749;BME280;9503;53.560;10.246;2024-03-06T09:02:22;101818.09;;;12.34;57.69
18749;BME280;9503;53.560;10.246;2024-03-06T09:04:49;101821.91;;;12.85;57.12
18749;BME280;9503;53.560;10.246;2024-03-06T09:07:17;101821.56;;;12.35;56.81
18749;BME280;9503;53.560;10.246;2024-03-06T09:09:44;101822.81;;;12.27;57.56
18749;BME280;9503;53.560;10.246;2024-03-06T09:12:11;101828.63;;;13.14;55.84
18749;BME280;9503;53.560;10.246;2024-03-06T09:14:39;101839.50;;;13.23;56.10
18749;BME280;9503;53.560;10.246;2024-03-06T09:17:07;101835.66;;;12.71;56.67
18749;BME280;9503;53.560;10.246;2024-03-06T09:19:34;101841.09;;;13.52;55.77
18749;BME280;9503;53.560;10.246;2024-03-06T09:22:01;101842.94;;;13.55;54.76
18749;BME280;9503;53.560;10.246;2024-03-06T09:24:28;101846.84;;;13.96;53.32
18749;BME280;9503;53.560;10.246;2024-03-06T09:26:55;101840.63;;;13.92;53.08
18749;BME280;9503;53.560;10.246;2024-03-06T09:29:21;101852.88;;;13.96;52.93
18749;BME280;9503;53.560;10.246;2024-03-06T09:31:49;101849.88;;;14.05;52.73
18749;BME280;9503;53.560;10.246;2024-03-06T09:34:16;101854.22;;;13.11;54.31
18749;BME280;9503;53.560;10.246;2024-03-06T09:36:46;101859.81;;;13.50;54.25
18749;BME280;9503;53.560;10.246;2024-03-06T09:39:13;101859.34;;;13.41;54.35
18749;BME280;9503;53.560;10.246;2024-03-06T09:41:41;101862.25;;;13.47;53.99
18749;BME280;9503;53.560;10.246;2024-03-06T09:44:09;101856.41;;;13.35;53.94
18749;BME280;9503;53.560;10.246;2024-03-06T09:46:35;101855.28;;;13.77;53.64
18749;BME280;9503;53.560;10.246;2024-03-06T09:49:04;101859.06;;;14.32;52.69
18749;BME280;9503;53.560;10.246;2024-03-06T09:51:31;101867.75;;;13.69;52.98
18749;BME280;9503;53.560;10.246;2024-03-06T09:53:58;101861.28;;;13.45;54.19
18749;BME280;9503;53.560;10.246;2024-03-06T09:56:25;101871.63;;;13.94;52.91
18749;BME280;9503;53.560;10.246;2024-03-06T09:58:51;101869.47;;;14.18;53.38
18749;BME280;9503;53.560;10.246;2024-03-06T10:01:19;101864.53;;;14.55;51.81
18749;BME280;9503;53.560;10.246;2024-03-06T10:03:47;101864.47;;;14.89;51.42
18749;BME280;9503;53.560;10.246;2024-03-06T10:06:15;101871.41;;;15.26;50.57
18749;BME280;9503;53.560;10.246;2024-03-06T10:08:42;101871.50;;;16.61;48.67
18749;BME280;9503;53.560;10.246;2024-03-06T10:11:09;101868.50;;;16.92;47.50
18749;BME280;9503;53.560;10.246;2024-03-06T10:13:36;101873.88;;;16.76;47.80
18749;BME280;9503;53.560;10.246;2024-03-06T10:16:04;101875.91;;;16.83;48.08
18749;BME280;9503;53.560;10.246;2024-03-06T10:18:34;101878.34;;;15.62;49.70
18749;BME280;9503;53.560;10.246;2024-03-06T10:21:00;101886.81;;;15.97;49.14
18749;BME280;9503;53.560;10.246;2024-03-06T10:23:28;101889.06;;;16.28;48.90
18749;BME280;9503;53.560;10.246;2024-03-06T10:25:55;101888.31;;;15.92;48.99
18749;BME280;9503;53.560;10.246;2024-03-06T10:28:23;101891.91;;;16.74;47.88
18749;BME280;9503;53.560;10.246;2024-03-06T10:30:50;101898.50;;;16.87;47.31
18749;BME280;9503;53.560;10.246;2024-03-06T10:33:18;101897.53;;;17.27;46.51
18749;BME280;9503;53.560;10.246;2024-03-06T10:35:45;101890.59;;;17.05;46.62
18749;BME280;9503;53.560;10.246;2024-03-06T10:38:13;101896.91;;;16.50;47.74
18749;BME280;9503;53.560;10.246;2024-03-06T10:40:42;101895.59;;;16.39;47.78
18749;BME280;9503;53.560;10.246;2024-03-06T10:43:11;101892.25;;;16.82;47.77
18749;BME280;9503;53.560;10.246;2024-03-06T10:45:45;101893.28;;;16.66;47.80
18749;BME280;9503;53.560;10.246;2024-03-06T10:48:13;101898.81;;;15.95;49.13
18749;BME280;9503;53.560;10.246;2024-03-06T10:50:41;101894.75;;;15.45;49.49
18749;BME280;9503;53.560;10.246;2024-03-06T10:53:10;101898.81;;;15.95;48.86
18749;BME280;9503;53.560;10.246;2024-03-06T10:55:37;101890.03;;;16.51;47.54
18749;BME280;9503;53.560;10.246;2024-03-06T10:58:05;101886.06;;;16.78;47.27
18749;BME280;9503;53.560;10.246;2024-03-06T11:00:35;101898.69;;;16.71;47.43
18749;BME280;9503;53.560;10.246;2024-03-06T11:03:05;101890.91;;;16.71;47.25
18749;BME280;9503;53.560;10.246;2024-03-06T11:05:34;101891.28;;;17.22;46.57
18749;BME280;9503;53.560;10.246;2024-03-06T11:08:02;101886.59;;;17.34;46.55
18749;BME280;9503;53.560;10.246;2024-03-06T11:10:32;101899.38;;;17.74;45.80
18749;BME280;9503;53.560;10.246;2024-03-06T11:13:00;101898.44;;;18.18;44.99
18749;BME280;9503;53.560;10.246;2024-03-06T11:15:29;101901.81;;;18.16;44.57
18749;BME280;9503;53.560;10.246;2024-03-06T11:17:58;101896.97;;;17.79;45.18
18749;BME280;9503;53.560;10.246;2024-03-06T11:20:33;101891.50;;;17.05;46.32
18749;BME280;9503;53.560;10.246;2024-03-06T11:23:07;101891.88;;;17.82;45.05
18749;BME280;9503;53.560;10.246;2024-03-06T11:26:00;101898.44;;;17.06;45.86
18749;BME280;9503;53.560;10.246;2024-03-06T11:28:29;101903.34;;;17.21;45.88
18749;BME280;9503;53.560;10.246;2024-03-06T11:30:59;101908.81;;;18.18;44.55
18749;BME280;9503;53.560;10.246;2024-03-06T11:33:35;101900.97;;;19.17;42.99
18749;BME280;9503;53.560;10.246;2024-03-06T11:36:20;101898.28;;;19.16;42.82
18749;BME280;9503;53.560;10.246;2024-03-06T11:38:50;101902.91;;;18.72;43.45
18749;BME280;9503;53.560;10.246;2024-03-06T11:41:18;101900.06;;;17.48;45.50
18749;BME280;9503;53.560;10.246;2024-03-06T11:43:45;101901.41;;;17.60;45.31
18749;BME280;9503;53.560;10.246;2024-03-06T11:46:17;101899.09;;;17.89;44.85
18749;BME280;9503;53.560;10.246;2024-03-06T11:48:51;101900.34;;;17.33;46.14
18749;BME280;9503;53.560;10.246;2024-03-06T11:51:18;101900.56;;;16.35;47.01
18749;BME280;9503;53.560;10.246;2024-03-06T11:53:45;101901.91;;;16.46;47.52
18749;BME280;9503;53.560;10.246;2024-03-06T11:56:12;101900.84;;;17.02;46.42
18749;BME280;9503;53.560;10.246;2024-03-06T11:58:39;101893.63;;;16.74;46.52
18749;BME280;9503;53.560;10.246;2024-03-06T12:01:06;101901.47;;;17.39;45.52
18749;BME280;9503;53.560;10.246;2024-03-06T12:03:34;101901.56;;;17.86;44.80
18749;BME280;9503;53.560;10.246;2024-03-06T12:06:01;101905.28;;;17.70;45.06
18749;BME280;9503;53.560;10.246;2024-03-06T12:08:28;101893.84;;;16.59;46.86
18749;BME280;9503;53.560;10.246;2024-03-06T12:10:57;101901.38;;;16.14;47.75
18749;BME280;9503;53.560;10.246;2024-03-06T12:13:24;101906.47;;;15.74;47.75
18749;BME280;9503;53.560;10.246;2024-03-06T12:15:51;101912.47;;;15.37;48.80
18749;BME280;9503;53.560;10.246;2024-03-06T12:18:18;101916.56;;;15.87;47.91
18749;BME280;9503;53.560;10.246;2024-03-06T12:20:49;101915.50;;;15.64;47.89
18749;BME280;9503;53.560;10.246;2024-03-06T12:23:20;101910.19;;;15.61;48.34
18749;BME280;9503;53.560;10.246;2024-03-06T12:26:02;101910.69;;;15.72;47.89
18749;BME280;9503;53.560;10.246;2024-03-06T12:28:29;101912.81;;;15.81;47.93
18749;BME280;9503;53.560;10.246;2024-03-06T12:30:55;101918.88;;;16.00;47.11
18749;BME280;9503;53.560;10.246;2024-03-06T12:33:26;101919.59;;;15.79;47.48
18749;BME280;9503;53.560;10.246;2024-03-06T12:36:01;101916.09;;;16.15;47.56
18749;BME280;9503;53.560;10.246;2024-03-06T12:38:29;101917.50;;;16.28;47.71
18749;BME280;9503;53.560;10.246;2024-03-06T12:40:56;101912.38;;;16.09;47.02
18749;BME280;9503;53.560;10.246;2024-03-06T12:43:23;101917.31;;;16.43;46.96
18749;BME280;9503;53.560;10.246;2024-03-06T12:45:50;101918.25;;;16.45;47.19
18749;BME280;9503;53.560;10.246;2024-03-06T12:48:20;101916.41;;;16.23;47.35
18749;BME280;9503;53.560;10.246;2024-03-06T12:50:46;101913.72;;;16.20;47.70
18749;BME280;9503;53.560;10.246;2024-03-06T12:53:18;101907.34;;;15.74;47.72
18749;BME280;9503;53.560;10.246;2024-03-06T12:55:48;101913.88;;;15.86;48.35